Atlantic Beach, Florida
Current Conditions -  °F | °C
As of 10:52 PM on Saturday 24 Jan 2015 (Local Time) from KNRB Reporting Station
Clear Clear  
Wind Chill: 50°   Ceiling: Unl
Heat Index: 50°   Visibility: 10mi
Dew Point: 39°   Wind: 7mph
Humidity: 66%   Direction: 260°W
Pressure: 30"   Gusts: NA
Location:  30.33°N, 81.4°W
Report Text: KNRB 250352Z 26006KT 10SM CLR 10/04 A3000 RMK AO2 SLP160 T01000039 $
Loading
Personal Weather Stations






























Interactive Weather Map New forecast layout! Learn more

10-Day Weather Forecast

Advertisements
Track Severe Weather on mobile